Gurn Spring, New York
Current Conditions -  °F | °C
As of 11:53 AM on Thursday 18 Dec 2014 (Local Time) from KGFL Reporting Station
Overcast Overcast  
Wind Chill:   Ceiling: 3500
Heat Index:   Visibility: 10mi
Dew Point: -4°   Wind: 9mph
Humidity: 60%   Direction: 280°W
Pressure: 29.87"   Gusts: NA
Location:  43.1979°N, 73.6839°W
Report Text: KGFL 181653Z AUTO 28008KT 10SM OVC035 03/M04 A2987 RMK AO2 SLP121 T00331039
Loading
Personal Weather Stations






























Interactive Weather Map New forecast layout! Learn more

10-Day Weather Forecast

Advertisements
Track Severe Weather on mobile